Time;durP1;ratioP1;P1;durP2;ratioP2;P2;SDS_P1;SDS_P2;PMS_P1;PMS_P2;Temp;Humidity;BMP_temperature;BMP_pressure;BME280_temperature;BME280_humidity;BME280_pressure;Samples;Min_cycle;Max_cycle;Signal;HPM_P1;HPM_P2
2024/03/22 07:14:42;;;;;;;16.38;8.57;;;;;;;;;;4990308;28;25248;-64
2024/03/22 07:17:07;;;;;;;18.33;7.00;;;;;;;;;;4993697;28;20045;-61
2024/03/22 07:19:34;;;;;;;14.77;6.83;;;;;;;;;;5013129;28;20016;-60
2024/03/22 07:21:59;;;;;;;;;;;;;;;;;;5087257;28;20017;-62
2024/03/22 07:24:26;;;;;;;16.40;6.30;;;;;;;;;;5088596;28;19915;-61
2024/03/22 07:26:52;;;;;;;13.30;5.93;;;;;;;;;;5030150;28;20062;-62
2024/03/22 07:29:18;;;;;;;11.13;5.40;;;;;;;;;;5023911;28;20478;-62
2024/03/22 07:31:43;;;;;;;11.90;4.97;;;;;;;;;;5003646;28;20022;-62
2024/03/22 07:34:08;;;;;;;12.57;5.78;;;;;;;;;;4998453;28;20467;-62
2024/03/22 07:36:37;;;;;;;11.07;5.37;;;;;;;;;;4993140;28;20027;-62
2024/03/22 07:39:03;;;;;;;12.02;5.45;;;;;;;;;;5018249;28;20030;-63
2024/03/22 07:41:31;;;;;;;11.35;5.53;;;;;;;;;;4997470;28;20035;-61
2024/03/22 07:43:57;;;;;;;10.25;4.85;;;;;;;;;;4996532;28;20011;-62
2024/03/22 07:46:23;;;;;;;9.65;4.60;;;;;;;;;;4995326;28;20211;-64
2024/03/22 07:48:48;;;;;;;9.95;4.93;;;;;;;;;;5019438;28;20030;-62
2024/03/22 07:51:14;;;;;;;9.52;4.22;;;;;;;;;;5005100;28;20027;-65
2024/03/22 07:53:39;;;;;;;9.93;4.20;;;;;;;;;;4995592;28;20030;-63
2024/03/22 07:56:04;;;;;;;8.90;3.92;;;;;;;;;;4990164;28;20049;-63
2024/03/22 07:58:29;;;;;;;9.90;3.97;;;;;;;;;;4988124;28;20030;-63
2024/03/22 08:00:55;;;;;;;8.02;3.88;;;;;;;;;;4993696;28;20054;-62
2024/03/22 08:03:20;;;;;;;9.35;4.20;;;;;;;;;;4985645;28;20030;-61
2024/03/22 08:05:45;;;;;;;9.02;3.67;;;;;;;;;;4982519;28;20030;-61
2024/03/22 08:08:10;;;;;;;12.33;4.37;;;;;;;;;;4993706;28;20054;-61
2024/03/22 08:10:35;;;;;;;9.03;4.23;;;;;;;;;;4992555;28;20022;-62
2024/03/22 08:13:00;;;;;;;9.90;4.30;;;;;;;;;;4997989;28;20030;-62
2024/03/22 08:15:26;;;;;;;9.67;4.63;;;;;;;;;;5004314;28;20359;-62
2024/03/22 08:17:51;;;;;;;13.05;4.93;;;;;;;;;;4994220;28;20015;-62
2024/03/22 08:20:16;;;;;;;10.32;4.55;;;;;;;;;;5001408;28;20037;-63
2024/03/22 08:22:42;;;;;;;11.50;4.83;;;;;;;;;;5009418;28;20022;-62
2024/03/22 08:25:07;;;;;;;11.45;5.18;;;;;;;;;;4988309;28;20046;-61
2024/03/22 08:27:33;;;;;;;11.35;5.30;;;;;;;;;;4981342;28;20047;-61
2024/03/22 08:29:58;;;;;;;13.32;5.95;;;;;;;;;;4982113;28;20035;-61
2024/03/22 08:32:23;;;;;;;12.30;5.40;;;;;;;;;;4980128;28;20125;-66
2024/03/22 08:34:48;;;;;;;12.70;5.80;;;;;;;;;;4972020;28;20027;-63
2024/03/22 08:37:13;;;;;;;12.97;5.80;;;;;;;;;;4987833;28;20052;-62
2024/03/22 08:39:38;;;;;;;12.25;5.78;;;;;;;;;;4991678;28;20034;-62
2024/03/22 08:42:05;;;;;;;11.20;4.85;;;;;;;;;;4991251;28;20419;-62
2024/03/22 08:44:30;;;;;;;11.70;5.43;;;;;;;;;;4987969;28;20505;-64
2024/03/22 08:46:56;;;;;;;12.00;5.05;;;;;;;;;;4979479;28;20023;-61
2024/03/22 08:49:21;;;;;;;11.65;4.97;;;;;;;;;;4987418;28;20026;-61
2024/03/22 08:51:48;;;;;;;10.20;4.90;;;;;;;;;;4972708;28;20053;-63
2024/03/22 08:54:13;;;;;;;11.43;4.93;;;;;;;;;;4971227;28;20520;-62
2024/03/22 08:56:38;;;;;;;10.43;4.60;;;;;;;;;;4977227;28;20054;-61
2024/03/22 08:59:03;;;;;;;10.03;4.80;;;;;;;;;;4984560;28;20022;-60
2024/03/22 09:01:29;;;;;;;11.23;4.88;;;;;;;;;;4989218;28;20490;-63
2024/03/22 09:03:54;;;;;;;11.80;4.78;;;;;;;;;;4991008;28;20416;-62
2024/03/22 09:06:19;;;;;;;9.48;4.15;;;;;;;;;;4982281;28;20097;-62
2024/03/22 09:08:45;;;;;;;10.80;4.80;;;;;;;;;;4972010;28;20090;-61
2024/03/22 09:11:11;;;;;;;9.15;4.15;;;;;;;;;;4969609;28;20030;-62
2024/03/22 09:13:36;;;;;;;9.05;4.18;;;;;;;;;;4971007;28;20058;-61
2024/03/22 09:16:01;;;;;;;9.63;4.10;;;;;;;;;;4969196;28;20019;-62
2024/03/22 09:18:27;;;;;;;9.13;4.32;;;;;;;;;;4978809;28;20493;-61
2024/03/22 09:20:52;;;;;;;7.88;3.53;;;;;;;;;;4970790;28;20019;-61
2024/03/22 09:23:19;;;;;;;8.82;3.67;;;;;;;;;;4970903;28;20057;-61
2024/03/22 09:25:44;;;;;;;;;;;;;;;;;;4972081;28;20045;-62
2024/03/22 09:28:09;;;;;;;9.00;3.70;;;;;;;;;;4982696;28;19906;-61
2024/03/22 09:30:37;;;;;;;8.85;3.30;;;;;;;;;;4976140;28;20179;-62
2024/03/22 09:33:03;;;;;;;9.07;3.42;;;;;;;;;;4970833;28;20099;-62
2024/03/22 09:35:28;;;;;;;7.68;3.20;;;;;;;;;;4970213;28;20538;-62
2024/03/22 09:37:54;;;;;;;7.73;3.13;;;;;;;;;;4981648;28;20053;-63
2024/03/22 09:40:19;;;;;;;8.70;3.27;;;;;;;;;;4989312;28;20022;-62
2024/03/22 09:42:45;;;;;;;6.57;2.78;;;;;;;;;;4993317;28;20041;-64
2024/03/22 09:45:10;;;;;;;7.43;3.00;;;;;;;;;;4980136;28;20056;-62
2024/03/22 09:47:37;;;;;;;6.23;2.93;;;;;;;;;;4990431;28;20023;-61
2024/03/22 09:50:02;;;;;;;6.80;2.90;;;;;;;;;;4981956;28;20813;-62
2024/03/22 09:52:27;;;;;;;7.38;2.90;;;;;;;;;;4989573;28;20033;-62
2024/03/22 09:54:53;;;;;;;6.93;2.80;;;;;;;;;;4988563;28;20050;-62
2024/03/22 09:57:18;;;;;;;5.93;2.57;;;;;;;;;;4993794;28;20019;-60
2024/03/22 09:59:44;;;;;;;5.85;2.50;;;;;;;;;;4989043;28;20034;-62
2024/03/22 10:02:11;;;;;;;5.90;2.63;;;;;;;;;;4989608;28;20014;-62
2024/03/22 10:04:36;;;;;;;6.38;2.35;;;;;;;;;;4989220;28;20075;-61
2024/03/22 10:07:02;;;;;;;5.88;2.35;;;;;;;;;;4975658;28;20105;-61
2024/03/22 10:09:28;;;;;;;6.07;2.40;;;;;;;;;;4986910;28;20033;-62
2024/03/22 10:11:53;;;;;;;6.40;2.70;;;;;;;;;;4989583;28;20026;-61
2024/03/22 10:14:18;;;;;;;6.97;2.67;;;;;;;;;;4989409;28;20026;-61
2024/03/22 10:16:43;;;;;;;6.28;2.42;;;;;;;;;;4981191;28;20039;-61
2024/03/22 10:19:09;;;;;;;6.32;2.47;;;;;;;;;;4984890;28;20027;-62
2024/03/22 10:21:34;;;;;;;5.47;2.22;;;;;;;;;;4972493;28;20035;-62
2024/03/22 10:24:00;;;;;;;6.93;2.78;;;;;;;;;;4977821;28;20101;-61
2024/03/22 10:26:25;;;;;;;5.78;2.30;;;;;;;;;;4969973;28;20042;-61
2024/03/22 10:28:50;;;;;;;5.63;2.03;;;;;;;;;;4971835;28;20030;-63
2024/03/22 10:31:15;;;;;;;5.50;2.00;;;;;;;;;;4969147;28;20026;-61
2024/03/22 10:33:41;;;;;;;6.27;2.40;;;;;;;;;;4979574;28;20466;-61
2024/03/22 10:36:06;;;;;;;5.18;2.30;;;;;;;;;;4969637;28;20402;-61
2024/03/22 10:38:32;;;;;;;6.38;2.53;;;;;;;;;;4970445;28;20493;-62
2024/03/22 10:40:57;;;;;;;6.05;2.55;;;;;;;;;;4968965;28;20104;-62
2024/03/22 10:43:22;;;;;;;5.22;2.08;;;;;;;;;;4978717;28;20083;-63
2024/03/22 10:45:48;;;;;;;6.80;2.50;;;;;;;;;;5030265;28;20020;-63
2024/03/22 10:48:16;;;;;;;5.63;2.30;;;;;;;;;;4988001;28;20042;-62
2024/03/22 10:50:44;;;;;;;5.43;2.13;;;;;;;;;;4977681;28;20532;-62
2024/03/22 10:53:14;;;;;;;4.75;2.08;;;;;;;;;;4984062;28;20034;-62
2024/03/22 10:55:42;;;;;;;5.88;2.20;;;;;;;;;;4983166;28;20404;-62
2024/03/22 10:58:07;;;;;;;5.60;2.40;;;;;;;;;;4969859;28;20026;-62
2024/03/22 11:00:33;;;;;;;6.03;2.30;;;;;;;;;;4976415;28;20025;-60
2024/03/22 11:02:59;;;;;;;6.40;2.10;;;;;;;;;;4982147;28;20137;-63
2024/03/22 11:05:25;;;;;;;4.78;2.03;;;;;;;;;;4990468;28;20056;-61
2024/03/22 11:08:00;;;;;;;5.95;2.15;;;;;;;;;;4990310;28;20038;-61
2024/03/22 11:10:29;;;;;;;6.30;2.30;;;;;;;;;;4989749;28;20436;-63
2024/03/22 11:12:54;;;;;;;5.93;2.03;;;;;;;;;;4983247;28;20034;-63
2024/03/22 11:15:21;;;;;;;6.15;2.10;;;;;;;;;;4982915;28;20026;-61
2024/03/22 11:17:46;;;;;;;5.88;1.90;;;;;;;;;;4951243;29;20027;-62
2024/03/22 11:20:11;;;;;;;5.30;2.10;;;;;;;;;;4963689;28;20044;-60
2024/03/22 11:22:37;;;;;;;7.25;2.03;;;;;;;;;;4977855;28;20509;-63
2024/03/22 11:25:02;;;;;;;4.93;1.70;;;;;;;;;;4982549;28;20076;-62
2024/03/22 11:27:27;;;;;;;5.07;1.97;;;;;;;;;;4989080;28;20029;-62
2024/03/22 11:29:54;;;;;;;6.10;2.10;;;;;;;;;;4988737;28;20087;-62
2024/03/22 11:32:19;;;;;;;4.88;2.08;;;;;;;;;;4971863;28;20022;-61
2024/03/22 11:34:46;;;;;;;5.33;2.40;;;;;;;;;;4979462;28;20032;-60
2024/03/22 11:37:11;;;;;;;5.32;2.10;;;;;;;;;;4988745;28;20033;-62
2024/03/22 11:39:37;;;;;;;6.20;2.53;;;;;;;;;;4987212;28;20034;-63
2024/03/22 11:42:04;;;;;;;5.70;1.98;;;;;;;;;;4973096;28;20031;-61
2024/03/22 11:44:30;;;;;;;4.28;1.88;;;;;;;;;;4991161;28;20105;-63
2024/03/22 11:46:55;;;;;;;7.22;2.05;;;;;;;;;;4969403;28;20494;-64
2024/03/22 11:49:20;;;;;;;4.50;1.85;;;;;;;;;;4952982;28;20036;-62
2024/03/22 11:51:46;;;;;;;4.93;2.00;;;;;;;;;;4957572;28;20085;-62
2024/03/22 11:54:11;;;;;;;7.80;2.23;;;;;;;;;;4977841;28;20039;-62
2024/03/22 11:56:36;;;;;;;6.60;2.17;;;;;;;;;;4988322;28;20441;-62
2024/03/22 11:59:02;;;;;;;7.03;2.42;;;;;;;;;;4989243;28;20076;-63
2024/03/22 12:01:28;;;;;;;6.68;2.20;;;;;;;;;;4982083;28;20105;-62
2024/03/22 12:03:54;;;;;;;7.78;2.88;;;;;;;;;;4984850;28;20424;-61
2024/03/22 12:06:20;;;;;;;5.53;2.20;;;;;;;;;;4991513;28;20011;-63
2024/03/22 12:08:45;;;;;;;4.75;2.10;;;;;;;;;;4991604;28;20069;-61
2024/03/22 12:11:10;;;;;;;6.13;2.35;;;;;;;;;;4976899;28;20374;-63
2024/03/22 12:13:35;;;;;;;4.80;2.08;;;;;;;;;;4981067;28;20038;-62
2024/03/22 12:16:04;;;;;;;5.50;1.83;;;;;;;;;;4991159;28;20033;-63
2024/03/22 12:18:29;;;;;;;6.13;2.38;;;;;;;;;;4991193;28;20421;-63
2024/03/22 12:20:54;;;;;;;5.27;2.30;;;;;;;;;;4978664;28;20037;-61
2024/03/22 12:23:19;;;;;;;4.53;1.93;;;;;;;;;;4979462;28;20435;-62
2024/03/22 12:25:44;;;;;;;5.20;2.30;;;;;;;;;;4990591;28;20025;-62
2024/03/22 12:28:10;;;;;;;6.00;2.13;;;;;;;;;;4991467;28;20042;-62
2024/03/22 12:30:35;;;;;;;7.22;2.38;;;;;;;;;;4990113;28;20030;-61
2024/03/22 12:33:01;;;;;;;5.13;2.30;;;;;;;;;;4979406;28;20479;-63
2024/03/22 12:35:26;;;;;;;5.93;2.47;;;;;;;;;;4977984;28;20030;-61
2024/03/22 12:37:51;;;;;;;6.75;2.80;;;;;;;;;;4971262;28;20035;-62
2024/03/22 12:40:16;;;;;;;5.72;2.35;;;;;;;;;;4971876;28;20493;-61
2024/03/22 12:42:41;;;;;;;6.13;2.23;;;;;;;;;;4977893;28;20023;-61
2024/03/22 12:45:07;;;;;;;6.55;2.63;;;;;;;;;;4984816;28;20054;-61
2024/03/22 12:47:32;;;;;;;6.55;2.47;;;;;;;;;;4991013;28;20030;-61
2024/03/22 12:49:57;;;;;;;6.20;2.47;;;;;;;;;;4975944;28;20393;-63
2024/03/22 12:52:22;;;;;;;5.85;2.28;;;;;;;;;;4977313;28;20471;-62
2024/03/22 12:54:48;;;;;;;7.80;2.60;;;;;;;;;;4979953;28;20031;-62
2024/03/22 12:57:13;;;;;;;8.07;2.93;;;;;;;;;;4973084;28;20046;-62
2024/03/22 12:59:38;;;;;;;8.47;3.20;;;;;;;;;;4981035;28;20015;-61
2024/03/22 13:02:04;;;;;;;5.20;2.40;;;;;;;;;;4990704;28;20114;-62
2024/03/22 13:04:29;;;;;;;5.88;2.40;;;;;;;;;;4991102;28;20520;-61
2024/03/22 13:06:54;;;;;;;6.03;2.65;;;;;;;;;;4980689;28;20026;-63
2024/03/22 13:09:21;;;;;;;6.30;2.63;;;;;;;;;;4983982;28;20026;-62
2024/03/22 13:11:48;;;;;;;10.30;3.20;;;;;;;;;;4990272;28;20733;-63
2024/03/22 13:14:14;;;;;;;7.50;2.75;;;;;;;;;;4992553;28;20038;-61
2024/03/22 13:16:39;;;;;;;6.55;2.42;;;;;;;;;;4980849;28;20026;-62
2024/03/22 13:19:05;;;;;;;6.20;2.63;;;;;;;;;;4984557;28;20026;-62
2024/03/22 13:21:31;;;;;;;7.43;3.03;;;;;;;;;;4991204;28;20038;-61
2024/03/22 13:23:56;;;;;;;6.10;2.63;;;;;;;;;;4985348;28;20026;-62
2024/03/22 13:26:21;;;;;;;6.43;2.50;;;;;;;;;;4969032;28;20056;-61
2024/03/22 13:28:46;;;;;;;6.43;2.67;;;;;;;;;;4982376;28;20026;-62
2024/03/22 13:31:11;;;;;;;6.55;3.05;;;;;;;;;;4991147;28;20029;-63
2024/03/22 13:33:36;;;;;;;6.35;2.65;;;;;;;;;;4990608;28;20038;-63
2024/03/22 13:36:02;;;;;;;7.32;2.70;;;;;;;;;;4977716;28;20018;-61
2024/03/22 13:38:28;;;;;;;8.65;2.92;;;;;;;;;;4981849;28;20021;-62
2024/03/22 13:40:57;;;;;;;6.50;2.58;;;;;;;;;;5005204;28;20017;-62
2024/03/22 13:43:22;;;;;;;6.78;2.72;;;;;;;;;;5072707;28;20043;-62
2024/03/22 13:45:50;;;;;;;6.53;2.63;;;;;;;;;;5050082;28;20034;-62
2024/03/22 13:48:15;;;;;;;6.55;2.95;;;;;;;;;;4983962;28;20105;-64
2024/03/22 13:50:41;;;;;;;5.87;2.43;;;;;;;;;;4968372;28;20053;-63
2024/03/22 13:53:07;;;;;;;6.32;2.83;;;;;;;;;;4970817;28;20031;-60
2024/03/22 13:55:32;;;;;;;6.20;2.53;;;;;;;;;;4972483;28;20494;-62
2024/03/22 13:57:57;;;;;;;5.60;2.67;;;;;;;;;;4983341;28;20010;-61
2024/03/22 14:00:25;;;;;;;7.10;2.90;;;;;;;;;;4992060;28;20051;-62
2024/03/22 14:02:53;;;;;;;8.48;3.05;;;;;;;;;;4992976;28;20022;-61
2024/03/22 14:05:18;;;;;;;7.63;2.80;;;;;;;;;;4993045;28;20478;-61
2024/03/22 14:07:43;;;;;;;7.27;3.40;;;;;;;;;;4979544;28;20059;-61
2024/03/22 14:10:08;;;;;;;7.97;3.20;;;;;;;;;;4971569;28;20027;-62
2024/03/22 14:12:34;;;;;;;5.67;2.63;;;;;;;;;;4970779;28;20026;-61
2024/03/22 14:14:59;;;;;;;7.53;3.00;;;;;;;;;;4970871;28;21009;-62
2024/03/22 14:17:24;;;;;;;7.20;3.00;;;;;;;;;;4977531;28;20018;-63
2024/03/22 14:19:51;;;;;;;6.90;3.28;;;;;;;;;;4975034;28;20030;-60
2024/03/22 14:22:16;;;;;;;7.78;3.10;;;;;;;;;;4969161;28;20041;-62
2024/03/22 14:24:42;;;;;;;6.57;2.58;;;;;;;;;;4969680;28;20023;-63
2024/03/22 14:27:08;;;;;;;6.45;2.60;;;;;;;;;;4977056;28;20029;-61
2024/03/22 14:29:34;;;;;;;9.10;3.35;;;;;;;;;;4969080;28;20034;-63
2024/03/22 14:32:00;;;;;;;6.43;3.03;;;;;;;;;;4969936;28;20019;-61
2024/03/22 14:34:25;;;;;;;7.90;3.25;;;;;;;;;;4964351;28;20037;-61
2024/03/22 14:36:51;;;;;;;6.20;2.90;;;;;;;;;;4962363;28;20014;-62
2024/03/22 14:39:16;;;;;;;7.20;3.10;;;;;;;;;;4976850;28;20031;-63
2024/03/22 14:41:41;;;;;;;9.05;3.08;;;;;;;;;;4976211;28;20101;-62
2024/03/22 14:44:06;;;;;;;7.72;3.20;;;;;;;;;;4967894;28;20026;-62
2024/03/22 14:46:32;;;;;;;6.70;2.90;;;;;;;;;;4982940;28;20095;-64
2024/03/22 14:48:57;;;;;;;8.07;3.22;;;;;;;;;;4964355;28;20019;-63
2024/03/22 14:51:23;;;;;;;6.90;2.80;;;;;;;;;;4988588;28;20028;-61
2024/03/22 14:53:48;;;;;;;8.15;3.05;;;;;;;;;;4968826;28;20979;-60
2024/03/22 14:56:14;;;;;;;8.20;3.20;;;;;;;;;;4969201;28;20176;-62
2024/03/22 14:58:39;;;;;;;8.85;3.40;;;;;;;;;;4975790;28;20731;-61
2024/03/22 15:01:05;;;;;;;6.40;3.30;;;;;;;;;;4981198;28;20394;-63
2024/03/22 15:03:31;;;;;;;7.05;3.10;;;;;;;;;;4970392;28;20102;-62
2024/03/22 15:05:56;;;;;;;6.85;2.78;;;;;;;;;;4976164;28;20100;-62
2024/03/22 15:08:22;;;;;;;7.75;2.92;;;;;;;;;;4974913;28;20032;-60
2024/03/22 15:10:48;;;;;;;8.18;3.28;;;;;;;;;;4976310;28;20730;-61
2024/03/22 15:13:13;;;;;;;6.70;2.75;;;;;;;;;;4968831;28;20026;-61
2024/03/22 15:15:39;;;;;;;7.85;2.83;;;;;;;;;;4986191;28;20039;-62
2024/03/22 15:18:07;;;;;;;6.75;3.20;;;;;;;;;;5025442;28;20030;-63
2024/03/22 15:20:33;;;;;;;7.93;3.95;;;;;;;;;;4964625;28;20043;-64
2024/03/22 15:22:58;;;;;;;8.43;3.80;;;;;;;;;;4973360;28;20026;-61
2024/03/22 15:25:23;;;;;;;9.10;4.18;;;;;;;;;;4986259;28;20026;-62
2024/03/22 15:27:50;;;;;;;8.60;3.80;;;;;;;;;;4982402;28;20023;-63
2024/03/22 15:30:15;;;;;;;9.43;3.85;;;;;;;;;;4977983;28;20054;-62
2024/03/22 15:32:40;;;;;;;9.00;4.00;;;;;;;;;;4977033;28;20287;-61
2024/03/22 15:35:07;;;;;;;8.57;3.90;;;;;;;;;;4983226;28;20034;-61
2024/03/22 15:37:32;;;;;;;6.43;3.30;;;;;;;;;;4978285;28;20026;-63
2024/03/22 15:39:57;;;;;;;8.53;3.43;;;;;;;;;;5069842;28;20034;-62
2024/03/22 15:42:23;;;;;;;9.65;4.20;;;;;;;;;;5037987;28;20037;-61
2024/03/22 15:44:48;;;;;;;8.93;4.20;;;;;;;;;;4973096;28;20027;-61
2024/03/22 15:47:13;;;;;;;8.73;4.45;;;;;;;;;;4975564;28;20451;-62
2024/03/22 15:49:38;;;;;;;10.63;4.53;;;;;;;;;;4975760;28;20076;-63
2024/03/22 15:52:04;;;;;;;9.70;4.27;;;;;;;;;;4959626;28;20027;-63
2024/03/22 15:54:31;;;;;;;8.52;4.60;;;;;;;;;;4984107;28;20022;-62
2024/03/22 15:56:56;;;;;;;;;;;;;;;;;;4977938;28;20019;-63
2024/03/22 15:59:21;;;;;;;9.18;4.32;;;;;;;;;;4968837;28;20382;-63
2024/03/22 16:01:47;;;;;;;9.55;4.40;;;;;;;;;;4972621;28;20041;-63
2024/03/22 16:04:13;;;;;;;8.60;4.60;;;;;;;;;;4978505;28;20058;-62
2024/03/22 16:06:38;;;;;;;10.90;6.10;;;;;;;;;;4983841;28;20106;-63
2024/03/22 16:09:03;;;;;;;9.63;5.03;;;;;;;;;;4964887;28;20047;-61
2024/03/22 16:11:28;;;;;;;11.10;4.38;;;;;;;;;;4987965;28;20093;-62
2024/03/22 16:13:53;;;;;;;9.00;4.53;;;;;;;;;;4976433;28;20026;-63
2024/03/22 16:16:19;;;;;;;11.20;4.93;;;;;;;;;;4979677;28;20033;-61
2024/03/22 16:18:44;;;;;;;10.38;5.05;;;;;;;;;;4971131;28;20546;-61
2024/03/22 16:21:10;;;;;;;9.10;4.43;;;;;;;;;;4974541;28;20023;-62
2024/03/22 16:23:36;;;;;;;;;;;;;;;;;;4990322;28;20022;-63
2024/03/22 16:26:01;;;;;;;10.60;4.68;;;;;;;;;;4979537;28;19986;-61
2024/03/22 16:28:26;;;;;;;9.93;4.90;;;;;;;;;;4962095;28;20502;-62
2024/03/22 16:30:51;;;;;;;10.02;5.10;;;;;;;;;;4977426;28;20084;-62
2024/03/22 16:33:17;;;;;;;10.23;5.00;;;;;;;;;;4986798;28;20030;-63
2024/03/22 16:35:42;;;;;;;10.63;4.80;;;;;;;;;;4985888;28;20027;-62
2024/03/22 16:38:07;;;;;;;12.27;5.47;;;;;;;;;;4992315;28;20027;-63
2024/03/22 16:40:32;;;;;;;12.07;5.18;;;;;;;;;;4969583;28;20059;-62
2024/03/22 16:42:57;;;;;;;10.27;5.28;;;;;;;;;;4981071;28;20379;-61
2024/03/22 16:45:22;;;;;;;10.40;5.30;;;;;;;;;;4972918;28;20029;-62
2024/03/22 16:47:50;;;;;;;9.13;5.05;;;;;;;;;;4972743;28;20023;-62
2024/03/22 16:50:15;;;;;;;9.65;4.97;;;;;;;;;;4983811;28;20014;-62
2024/03/22 16:52:41;;;;;;;9.43;4.83;;;;;;;;;;4971406;28;20400;-61
2024/03/22 16:55:17;;;;;;;9.90;5.30;;;;;;;;;;4971741;28;20011;-61
2024/03/22 16:57:43;;;;;;;11.52;5.28;;;;;;;;;;4972916;28;20031;-62
2024/03/22 17:00:08;;;;;;;10.90;5.55;;;;;;;;;;4988708;28;20019;-62
2024/03/22 17:02:34;;;;;;;9.45;4.60;;;;;;;;;;4971531;28;20034;-61
2024/03/22 17:04:59;;;;;;;11.18;5.03;;;;;;;;;;4971066;28;20401;-62
2024/03/22 17:07:25;;;;;;;12.43;5.10;;;;;;;;;;4970503;28;20167;-63
2024/03/22 17:09:50;;;;;;;11.77;5.75;;;;;;;;;;4980375;28;20018;-61
2024/03/22 17:12:15;;;;;;;11.27;4.85;;;;;;;;;;4975881;28;20126;-64
2024/03/22 17:14:41;;;;;;;10.17;5.27;;;;;;;;;;4970999;28;20031;-62
2024/03/22 17:17:06;;;;;;;10.57;5.40;;;;;;;;;;4971259;28;20046;-61
2024/03/22 17:19:32;;;;;;;9.80;4.60;;;;;;;;;;4978037;28;20054;-62
2024/03/22 17:21:57;;;;;;;12.20;5.85;;;;;;;;;;4982581;28;20467;-60
2024/03/22 17:24:25;;;;;;;10.97;5.13;;;;;;;;;;4982327;28;20022;-62
2024/03/22 17:26:51;;;;;;;11.90;5.70;;;;;;;;;;5027339;28;20372;-62
2024/03/22 17:29:17;;;;;;;10.90;5.30;;;;;;;;;;4995109;28;20022;-62
2024/03/22 17:31:42;;;;;;;15.70;6.57;;;;;;;;;;4982852;28;20025;-63
2024/03/22 17:34:08;;;;;;;14.50;5.82;;;;;;;;;;4970314;28;20066;-61
2024/03/22 17:36:33;;;;;;;11.48;6.68;;;;;;;;;;4977963;28;20104;-61
2024/03/22 17:38:58;;;;;;;11.73;5.97;;;;;;;;;;4997963;28;20027;-61
2024/03/22 17:41:24;;;;;;;12.30;5.65;;;;;;;;;;5002038;28;20024;-59
2024/03/22 17:43:52;;;;;;;10.20;5.23;;;;;;;;;;4986171;28;20501;-61
2024/03/22 17:46:20;;;;;;;13.80;5.88;;;;;;;;;;4978792;28;20076;-63
2024/03/22 17:48:46;;;;;;;10.75;5.78;;;;;;;;;;4973104;28;20114;-61
2024/03/22 17:51:11;;;;;;;11.18;6.10;;;;;;;;;;4983511;28;20045;-63
2024/03/22 17:53:36;;;;;;;12.02;6.13;;;;;;;;;;4990546;28;20029;-61
2024/03/22 17:56:02;;;;;;;12.80;6.68;;;;;;;;;;4969518;28;20062;-62
2024/03/22 17:58:28;;;;;;;13.10;7.00;;;;;;;;;;4971218;28;20015;-62
2024/03/22 18:00:53;;;;;;;10.00;5.65;;;;;;;;;;4967065;28;20037;-62
2024/03/22 18:03:18;;;;;;;13.32;6.43;;;;;;;;;;4972059;28;20047;-61
2024/03/22 18:05:43;;;;;;;11.80;6.18;;;;;;;;;;4976554;28;20027;-63
2024/03/22 18:08:08;;;;;;;11.03;6.27;;;;;;;;;;4997860;28;20067;-62
2024/03/22 18:10:34;;;;;;;13.02;6.63;;;;;;;;;;4993630;28;20130;-62
2024/03/22 18:12:59;;;;;;;12.98;6.68;;;;;;;;;;4977825;28;20521;-63
2024/03/22 18:15:25;;;;;;;13.63;6.90;;;;;;;;;;4981164;28;20022;-61
2024/03/22 18:17:50;;;;;;;13.70;6.85;;;;;;;;;;4975709;28;20035;-63
2024/03/22 18:20:18;;;;;;;13.38;7.40;;;;;;;;;;4975408;28;20142;-62
2024/03/22 18:22:44;;;;;;;11.55;5.75;;;;;;;;;;4974259;28;20080;-61
2024/03/22 18:25:09;;;;;;;12.98;6.35;;;;;;;;;;4971695;28;20023;-61
2024/03/22 18:27:34;;;;;;;11.35;6.93;;;;;;;;;;4968507;28;20122;-62
2024/03/22 18:29:59;;;;;;;13.17;6.80;;;;;;;;;;4972656;28;20030;-62
2024/03/22 18:32:24;;;;;;;13.18;7.63;;;;;;;;;;4956123;28;20120;-61
2024/03/22 18:34:50;;;;;;;11.73;6.53;;;;;;;;;;4995880;28;20042;-62
2024/03/22 18:37:15;;;;;;;11.20;6.37;;;;;;;;;;4956524;28;20034;-63
2024/03/22 18:39:40;;;;;;;10.63;6.07;;;;;;;;;;4979080;28;20121;-63
2024/03/22 18:42:06;;;;;;;12.27;6.50;;;;;;;;;;4950910;28;20477;-61
2024/03/22 18:44:33;;;;;;;11.55;6.38;;;;;;;;;;4974509;28;20023;-62
2024/03/22 18:46:58;;;;;;;15.50;6.75;;;;;;;;;;4963719;28;20014;-62
2024/03/22 18:49:23;;;;;;;12.38;6.35;;;;;;;;;;4987208;28;20023;-60
2024/03/22 18:51:49;;;;;;;14.23;7.13;;;;;;;;;;4949559;28;20042;-61
2024/03/22 18:54:14;;;;;;;13.63;6.90;;;;;;;;;;4963021;28;20051;-62
2024/03/22 18:56:40;;;;;;;12.30;7.07;;;;;;;;;;4957674;28;21296;-62
2024/03/22 18:59:06;;;;;;;13.25;7.35;;;;;;;;;;4962734;28;20031;-62
2024/03/22 19:01:31;;;;;;;14.65;7.80;;;;;;;;;;4959258;28;20031;-61
2024/03/22 19:03:56;;;;;;;14.70;7.83;;;;;;;;;;4966789;28;20026;-61
2024/03/22 19:06:21;;;;;;;13.00;7.40;;;;;;;;;;4974201;28;20034;-63
2024/03/22 19:08:46;;;;;;;15.40;7.60;;;;;;;;;;4966427;28;20228;-63
2024/03/22 19:11:11;;;;;;;14.60;7.40;;;;;;;;;;4964933;28;20066;-61
2024/03/22 19:13:37;;;;;;;14.43;6.87;;;;;;;;;;4973145;28;20060;-60
2024/03/22 19:16:02;;;;;;;18.05;8.73;;;;;;;;;;4963074;28;20118;-63
2024/03/22 19:18:28;;;;;;;13.80;7.60;;;;;;;;;;4965200;28;20070;-63
2024/03/22 19:20:53;;;;;;;15.70;8.13;;;;;;;;;;4964165;28;20465;-61
2024/03/22 19:23:19;;;;;;;15.67;8.57;;;;;;;;;;4974232;28;20027;-62
2024/03/22 19:25:44;;;;;;;17.25;9.30;;;;;;;;;;4971059;28;20061;-60
2024/03/22 19:28:09;;;;;;;15.77;8.73;;;;;;;;;;4962050;28;20023;-62
2024/03/22 19:30:35;;;;;;;19.63;10.07;;;;;;;;;;4985620;28;20022;-63
2024/03/22 19:33:00;;;;;;;18.52;9.77;;;;;;;;;;5012704;28;20438;-63
2024/03/22 19:35:25;;;;;;;16.73;9.30;;;;;;;;;;5002445;28;20077;-63
2024/03/22 19:37:50;;;;;;;19.20;10.13;;;;;;;;;;4966721;28;20408;-61
2024/03/22 19:40:15;;;;;;;20.33;11.48;;;;;;;;;;4973650;28;20042;-60
2024/03/22 19:42:41;;;;;;;21.20;10.77;;;;;;;;;;4963017;28;20038;-62
2024/03/22 19:45:06;;;;;;;25.23;13.53;;;;;;;;;;4966326;28;20035;-62
2024/03/22 19:47:32;;;;;;;23.20;13.20;;;;;;;;;;4958637;28;20022;-62
2024/03/22 19:49:57;;;;;;;24.02;13.00;;;;;;;;;;4968114;28;20401;-62
2024/03/22 19:52:23;;;;;;;18.95;11.52;;;;;;;;;;4963501;28;20038;-61
2024/03/22 19:54:48;;;;;;;21.02;11.48;;;;;;;;;;4967396;28;20046;-62
2024/03/22 19:57:13;;;;;;;21.92;12.00;;;;;;;;;;4961274;28;20023;-61
2024/03/22 19:59:39;;;;;;;20.02;11.43;;;;;;;;;;4959375;28;20019;-61
2024/03/22 20:02:06;;;;;;;19.43;11.90;;;;;;;;;;4964854;28;20030;-62
2024/03/22 20:04:31;;;;;;;19.25;10.90;;;;;;;;;;4978734;28;20457;-62
2024/03/22 20:06:56;;;;;;;20.17;11.93;;;;;;;;;;4998968;28;20036;-60
2024/03/22 20:09:21;;;;;;;19.10;12.07;;;;;;;;;;4991103;28;20410;-60
2024/03/22 20:11:46;;;;;;;16.87;10.57;;;;;;;;;;4978075;28;20025;-63
2024/03/22 20:14:12;;;;;;;21.07;11.40;;;;;;;;;;4975441;28;20105;-62
2024/03/22 20:16:37;;;;;;;21.73;11.77;;;;;;;;;;4968905;28;20030;-60
2024/03/22 20:19:02;;;;;;;19.80;12.13;;;;;;;;;;4965667;28;20125;-61
2024/03/22 20:21:27;;;;;;;21.40;11.75;;;;;;;;;;4969896;28;20564;-63
2024/03/22 20:23:52;;;;;;;21.27;11.30;;;;;;;;;;4970945;28;20084;-61
2024/03/22 20:26:18;;;;;;;21.35;12.30;;;;;;;;;;4968170;28;20031;-62
2024/03/22 20:28:45;;;;;;;19.02;10.90;;;;;;;;;;4966927;28;20027;-61
2024/03/22 20:31:10;;;;;;;20.13;12.02;;;;;;;;;;4972855;28;20018;-62
2024/03/22 20:33:35;;;;;;;22.77;12.40;;;;;;;;;;4966049;28;20037;-62
2024/03/22 20:36:01;;;;;;;21.88;11.50;;;;;;;;;;4967338;28;20038;-61
2024/03/22 20:38:27;;;;;;;26.60;11.52;;;;;;;;;;4965231;28;20411;-61
2024/03/22 20:40:53;;;;;;;18.90;11.18;;;;;;;;;;4983687;28;20462;-60
2024/03/22 20:43:19;;;;;;;20.92;12.48;;;;;;;;;;4962351;28;20027;-61
2024/03/22 20:45:44;;;;;;;23.40;11.15;;;;;;;;;;4982240;28;20015;-63
2024/03/22 20:48:11;;;;;;;24.13;11.88;;;;;;;;;;4958030;28;20041;-61
2024/03/22 20:50:43;;;;;;;20.52;11.52;;;;;;;;;;4968871;28;20035;-59
2024/03/22 20:53:09;;;;;;;20.80;11.85;;;;;;;;;;4987104;28;20448;-61
2024/03/22 20:55:35;;;;;;;18.67;11.45;;;;;;;;;;5007426;28;20035;-63
2024/03/22 20:58:02;;;;;;;20.08;11.25;;;;;;;;;;4988506;28;20015;-62
2024/03/22 21:00:27;;;;;;;19.48;11.32;;;;;;;;;;4975687;28;20439;-63
2024/03/22 21:02:53;;;;;;;20.65;12.43;;;;;;;;;;4978267;28;20037;-60
2024/03/22 21:05:19;;;;;;;19.33;11.13;;;;;;;;;;4966020;28;20023;-62
2024/03/22 21:07:45;;;;;;;19.25;10.90;;;;;;;;;;4973625;28;20022;-61
2024/03/22 21:10:13;;;;;;;19.77;11.48;;;;;;;;;;4981739;28;20048;-61
2024/03/22 21:12:38;;;;;;;20.83;12.45;;;;;;;;;;4963258;28;20031;-61
2024/03/22 21:15:07;;;;;;;21.83;12.27;;;;;;;;;;4971073;28;20039;-62
2024/03/22 21:17:33;;;;;;;22.02;12.95;;;;;;;;;;4972252;28;20466;-60
2024/03/22 21:19:58;;;;;;;19.50;12.02;;;;;;;;;;4980145;28;20034;-62
2024/03/22 21:22:25;;;;;;;24.67;13.00;;;;;;;;;;4973714;28;20030;-62
2024/03/22 21:24:50;;;;;;;24.50;13.32;;;;;;;;;;4966414;28;20026;-61
2024/03/22 21:27:16;;;;;;;23.38;13.25;;;;;;;;;;4987499;28;20402;-61
2024/03/22 21:29:44;;;;;;;19.67;11.80;;;;;;;;;;4973760;28;20398;-62
2024/03/22 21:32:09;;;;;;;23.60;13.15;;;;;;;;;;4959997;28;20026;-62
2024/03/22 21:34:35;;;;;;;21.65;12.68;;;;;;;;;;4971693;28;20023;-61
2024/03/22 21:37:01;;;;;;;21.40;11.60;;;;;;;;;;4984168;28;20027;-61
2024/03/22 21:39:27;;;;;;;21.45;11.77;;;;;;;;;;4967153;28;20026;-61